Namedropper — WDJ6888 — position and weather

sailwx.info

Track history (hours):
 
Tides and Currents Weather Stations Pressure Air Temp Water Temp Dewpoint Dewpoint Depression Visibility Wind Speed Wind Dir Waves Ship Positions

Namedropper

Owner: NAMEDROPPER LLC, West Hollywood, CA. More information available from US FCC via Universal Licensing System and Coast Guard Vessel Documentation Center.

Last reported at 2018-Jul-20 08:28 UTC. Time now 2018-Jul-20 08:42 UTC.
Position N 25°48' W 080°09'.

Length 24 m.

Type: Pleasure craft. MMSI: 368001230.

Date/timePositionNaut miles runAvg speedWind from/ knotsBaromVisibWave heightAir tempDewpointWater temp
2018-Jul-20 08:28N 25°48' W 080°09'0 0.0
2018-Jul-20 07:58N 25°48' W 080°09'0 0.0
2018-Jul-20 07:28N 25°48' W 080°09'0 0.0
2018-Jul-20 06:49N 25°48' W 080°09'0 0.0
2018-Jul-20 06:31N 25°48' W 080°09'0 0.0
2018-Jul-20 06:01N 25°48' W 080°09'0 0.0
2018-Jul-20 05:28N 25°48' W 080°09'0 0.0
2018-Jul-20 04:55N 25°48' W 080°09'0 0.0
2018-Jul-20 04:25N 25°48' W 080°09'0 0.0
2018-Jul-20 03:58N 25°48' W 080°09'0 0.0
2018-Jul-20 03:19N 25°48' W 080°09'0 0.0
2018-Jul-20 02:58N 25°48' W 080°09'0 0.0
2018-Jul-20 02:28N 25°48' W 080°09'0 0.0
2018-Jul-20 01:58N 25°48' W 080°09'0 0.0
2018-Jul-20 01:25N 25°48' W 080°09'0 0.0
2018-Jul-20 00:58N 25°48' W 080°09'0 0.0
2018-Jul-20 00:28N 25°48' W 080°09'0 0.0
2018-Jul-19 23:58N 25°48' W 080°09'0 0.0
2018-Jul-19 23:29N 25°48' W 080°09'0 0.0
2018-Jul-19 22:56N 25°48' W 080°09'0 0.0
2018-Jul-19 22:26N 25°48' W 080°09'0 0.0
2018-Jul-19 21:50N 25°48' W 080°09'0 0.0
2018-Jul-19 21:20N 25°48' W 080°09'0 0.0
2018-Jul-19 20:59N 25°48' W 080°09'0 0.0
2018-Jul-19 20:29N 25°48' W 080°09'0 0.0
2018-Jul-19 19:56N 25°48' W 080°09'0 0.0
2018-Jul-19 19:29N 25°48' W 080°09'0 0.0
2018-Jul-19 19:00N 25°48' W 080°09'0 0.0
2018-Jul-19 18:23N 25°48' W 080°09'0 0.0
2018-Jul-19 17:56N 25°48' W 080°09'0 0.0
2018-Jul-19 17:29N 25°48' W 080°09'0 0.0
2018-Jul-19 16:56N 25°48' W 080°09'0 0.0
2018-Jul-19 16:29N 25°48' W 080°09'0 1.0
2018-Jul-19 16:00N 25°47' W 080°09'3 6.2
2018-Jul-19 15:30N 25°46' W 080°06'3 5.6
2018-Jul-19 14:56N 25°48' W 080°09'0 0.7
2018-Jul-19 14:29N 25°48' W 080°09'0 0.0
2018-Jul-17 18:33N 25°48' W 080°09'0 0.0
2018-Jul-17 18:27N 25°48' W 080°09'0 0.9
2018-Jul-17 17:58N 25°47' W 080°09'2 4.4
2018-Jul-17 17:29N 25°46' W 080°08'5 9.4
2018-Jul-17 16:59N 25°50' W 080°06'0 0.7
2018-Jul-17 16:26N 25°50' W 080°06'4 8.3
2018-Jul-17 16:00N 25°46' W 080°06'3 5.3
2018-Jul-17 15:29N 25°48' W 080°09'0 0.7
2018-Jul-17 14:58N 25°48' W 080°09'0 0.0
2018-Jul-17 14:28N 25°48' W 080°09'  
Track history (hours):
 
Tides and Currents Weather Stations Pressure Air Temp Water Temp Dewpoint Dewpoint Depression Visibility Wind Speed Wind Dir Waves Ship Positions

Namedropper

Owner: NAMEDROPPER LLC, West Hollywood, CA. More information available from US FCC via Universal Licensing System and Coast Guard Vessel Documentation Center.

Last reported at 2018-Jul-20 08:28 UTC. Time now 2018-Jul-20 08:42 UTC.
Position N 25°48' W 080°09'.

Length 24 m.

Type: Pleasure craft. MMSI: 368001230.

Date/timePositionNaut miles runAvg speedWind from/ knotsBaromVisibWave heightAir tempDewpointWater temp
2018-Jul-20 08:28N 25°48' W 080°09'0 0.0
2018-Jul-20 07:58N 25°48' W 080°09'0 0.0
2018-Jul-20 07:28N 25°48' W 080°09'0 0.0
2018-Jul-20 06:49N 25°48' W 080°09'0 0.0
2018-Jul-20 06:31N 25°48' W 080°09'0 0.0
2018-Jul-20 06:01N 25°48' W 080°09'0 0.0
2018-Jul-20 05:28N 25°48' W 080°09'0 0.0
2018-Jul-20 04:55N 25°48' W 080°09'0 0.0
2018-Jul-20 04:25N 25°48' W 080°09'0 0.0
2018-Jul-20 03:58N 25°48' W 080°09'0 0.0
2018-Jul-20 03:19N 25°48' W 080°09'0 0.0
2018-Jul-20 02:58N 25°48' W 080°09'0 0.0
2018-Jul-20 02:28N 25°48' W 080°09'0 0.0
2018-Jul-20 01:58N 25°48' W 080°09'0 0.0
2018-Jul-20 01:25N 25°48' W 080°09'0 0.0
2018-Jul-20 00:58N 25°48' W 080°09'0 0.0
2018-Jul-20 00:28N 25°48' W 080°09'0 0.0
2018-Jul-19 23:58N 25°48' W 080°09'0 0.0
2018-Jul-19 23:29N 25°48' W 080°09'0 0.0
2018-Jul-19 22:56N 25°48' W 080°09'0 0.0
2018-Jul-19 22:26N 25°48' W 080°09'0 0.0
2018-Jul-19 21:50N 25°48' W 080°09'0 0.0
2018-Jul-19 21:20N 25°48' W 080°09'0 0.0
2018-Jul-19 20:59N 25°48' W 080°09'0 0.0
2018-Jul-19 20:29N 25°48' W 080°09'0 0.0
2018-Jul-19 19:56N 25°48' W 080°09'0 0.0
2018-Jul-19 19:29N 25°48' W 080°09'0 0.0
2018-Jul-19 19:00N 25°48' W 080°09'0 0.0
2018-Jul-19 18:23N 25°48' W 080°09'0 0.0
2018-Jul-19 17:56N 25°48' W 080°09'0 0.0
2018-Jul-19 17:29N 25°48' W 080°09'0 0.0
2018-Jul-19 16:56N 25°48' W 080°09'0 0.0
2018-Jul-19 16:29N 25°48' W 080°09'0 1.0
2018-Jul-19 16:00N 25°47' W 080°09'3 6.2
2018-Jul-19 15:30N 25°46' W 080°06'3 5.6
2018-Jul-19 14:56N 25°48' W 080°09'0 0.7
2018-Jul-19 14:29N 25°48' W 080°09'0 0.0
2018-Jul-17 18:33N 25°48' W 080°09'0 0.0
2018-Jul-17 18:27N 25°48' W 080°09'0 0.9
2018-Jul-17 17:58N 25°47' W 080°09'2 4.4
2018-Jul-17 17:29N 25°46' W 080°08'5 9.4
2018-Jul-17 16:59N 25°50' W 080°06'0 0.7
2018-Jul-17 16:26N 25°50' W 080°06'4 8.3
2018-Jul-17 16:00N 25°46' W 080°06'3 5.3
2018-Jul-17 15:29N 25°48' W 080°09'0 0.7
2018-Jul-17 14:58N 25°48' W 080°09'0 0.0
2018-Jul-17 14:28N 25°48' W 080°09'  

Dump ship's entire track history